Terminal Aerodrome Forecast
Issued by NWS Tampa Bay Area, FL

Home | Current Version | Previous Version | Text Only | Print | Product List | Glossary On
Versions: 1 2 3 4 5 6 7 8 9 10 11 12 13 14 15 16 17 18 19 20 21 22 23 24 25 26 27
000
FTUS42 KTBW 250800 AAA
TAFTPA
TAF AMD
KTPA 250857Z 2509/2606 15003KT P6SM FEW025 SCT250
     FM251000 18003KT P6SM VCSH SCT025
     FM251400 23006KT P6SM VCTS SCT040CB SCT250
     FM260100 24004KT P6SM FEW030 BKN250=

USA.gov is the U.S. government's official web portal to all federal, state and local government web resources and services.